Time;durP1;ratioP1;P1;durP2;ratioP2;P2;SDS_P1;SDS_P2;PMS_P1;PMS_P2;Temp;Humidity;BMP_temperature;BMP_pressure;BME280_temperature;BME280_humidity;BME280_pressure;Samples;Min_cycle;Max_cycle;Signal;HPM_P1;HPM_P2
2021/05/22 00:01:13;;;;;;;5.60;2.37;;;9.40;99.90;;;;;;6279181;22;20408;-55
2021/05/22 00:03:40;;;;;;;4.40;2.60;;;9.40;99.90;;;;;;6276047;22;20504;-54
2021/05/22 00:06:06;;;;;;;9.80;2.90;;;9.40;99.90;;;;;;6279948;22;20402;-56
2021/05/22 00:08:33;;;;;;;7.33;3.30;;;9.40;99.90;;;;;;6279069;22;20449;-53
2021/05/22 00:11:00;;;;;;;6.23;2.37;;;9.40;99.90;;;;;;6278094;22;20420;-58
2021/05/22 00:13:27;;;;;;;6.23;2.60;;;9.40;99.90;;;;;;6278492;22;20422;-50
2021/05/22 00:15:56;;;;;;;3.60;2.00;;;9.40;99.90;;;;;;6278658;22;20417;-52
2021/05/22 00:18:23;;;;;;;4.30;2.70;;;9.40;99.90;;;;;;6278362;22;20392;-55
2021/05/22 00:20:50;;;;;;;4.40;3.10;;;9.30;99.90;;;;;;6279425;22;20810;-51
2021/05/22 00:23:18;;;;;;;4.23;2.97;;;9.30;99.90;;;;;;6279607;22;20883;-54
2021/05/22 00:25:45;;;;;;;3.53;2.40;;;9.30;99.90;;;;;;6279719;22;20413;-53
2021/05/22 00:28:11;;;;;;;2.63;2.30;;;9.30;99.90;;;;;;6279944;22;21156;-53
2021/05/22 00:30:39;;;;;;;7.53;2.87;;;9.30;99.90;;;;;;6278965;22;20451;-56
2021/05/22 00:33:06;;;;;;;4.83;3.10;;;9.30;99.90;;;;;;6279780;22;20422;-52
2021/05/22 00:35:33;;;;;;;4.63;2.63;;;9.30;99.90;;;;;;6279759;22;20416;-50
2021/05/22 00:37:59;;;;;;;6.53;3.17;;;9.30;99.90;;;;;;6280504;22;20417;-55
2021/05/22 00:40:26;;;;;;;7.23;2.40;;;9.20;99.90;;;;;;6280218;22;20387;-57
2021/05/22 00:42:58;;;;;;;4.03;2.60;;;9.20;99.90;;;;;;6279868;22;20443;-57
2021/05/22 00:45:25;;;;;;;2.43;2.17;;;9.20;99.90;;;;;;6279684;22;20392;-56
2021/05/22 00:47:56;;;;;;;5.83;3.00;;;9.10;99.90;;;;;;6278586;22;20453;-55
2021/05/22 00:50:25;;;;;;;4.57;3.07;;;9.10;99.90;;;;;;6279919;22;20424;-57
2021/05/22 00:52:52;;;;;;;4.70;2.23;;;9.10;99.90;;;;;;6279745;22;20428;-57
2021/05/22 00:55:19;;;;;;;5.50;2.67;;;9.10;99.90;;;;;;6279463;22;20474;-56
2021/05/22 00:57:46;;;;;;;10.43;2.70;;;9.10;99.90;;;;;;6280012;22;20417;-54
2021/05/22 01:00:18;;;;;;;6.60;3.00;;;9.10;99.90;;;;;;6279757;22;20543;-48
2021/05/22 01:02:48;;;;;;;6.03;2.70;;;9.00;99.90;;;;;;6280366;22;20417;-50
2021/05/22 01:05:16;;;;;;;3.93;2.30;;;9.00;99.90;;;;;;6276238;22;20523;-53
2021/05/22 01:07:54;;;;;;;5.80;2.77;;;9.00;99.90;;;;;;6261876;22;20468;-57
2021/05/22 01:10:43;;;;;;;5.67;3.00;;;8.90;99.90;;;;;;6280005;22;20853;-54
2021/05/22 01:16:34;;;;;;;;;;;;;;;;;;;;;
2021/05/22 01:52:51;;;;;;;4.60;2.60;;;8.60;99.90;;;;;;6287216;22;20427;-54
2021/05/22 01:55:20;;;;;;;4.93;3.23;;;8.70;99.90;;;;;;6296905;22;20413;-54
2021/05/22 01:57:49;;;;;;;4.13;2.90;;;8.70;99.90;;;;;;6292023;22;20424;-51
2021/05/22 02:00:20;;;;;;;7.43;2.77;;;8.60;99.90;;;;;;6292862;22;20760;-56
2021/05/22 02:02:56;;;;;;;4.83;2.60;;;8.60;99.90;;;;;;6290766;22;20417;-53
2021/05/22 02:05:26;;;;;;;3.00;2.70;;;8.60;99.90;;;;;;6290846;22;20421;-54
2021/05/22 02:07:59;;;;;;;3.60;2.30;;;8.70;99.90;;;;;;6293405;22;20441;-50
2021/05/22 02:10:31;;;;;;;4.00;2.40;;;8.70;99.90;;;;;;6293450;22;20416;-52
2021/05/22 02:13:00;;;;;;;4.33;2.77;;;8.80;99.90;;;;;;6292626;22;20449;-53
2021/05/22 02:15:30;;;;;;;5.80;3.20;;;8.80;99.90;;;;;;6290796;22;20428;-53
2021/05/22 02:18:05;;;;;;;4.83;3.20;;;8.80;99.90;;;;;;6289756;22;20448;-54
2021/05/22 02:20:32;;;;;;;5.10;3.30;;;8.80;99.90;;;;;;6292307;22;20428;-54
2021/05/22 02:23:05;;;;;;;3.03;2.73;;;8.70;99.90;;;;;;6291289;22;20413;-55
2021/05/22 02:25:36;;;;;;;8.67;3.47;;;8.70;99.90;;;;;;6292391;22;20439;-48
2021/05/22 02:28:07;;;;;;;6.30;2.30;;;8.70;99.90;;;;;;6288327;22;20453;-57
2021/05/22 02:30:43;;;;;;;3.80;2.70;;;8.60;99.90;;;;;;6291776;22;20580;-56
2021/05/22 02:33:12;;;;;;;4.43;3.07;;;8.70;99.90;;;;;;6293974;22;20421;-52
2021/05/22 02:35:49;;;;;;;3.77;2.83;;;8.70;99.90;;;;;;6294286;22;20488;-51
2021/05/22 02:38:24;;;;;;;7.03;3.13;;;8.70;99.90;;;;;;6293653;22;20417;-50
2021/05/22 02:40:58;;;;;;;5.90;2.53;;;8.70;99.90;;;;;;6293998;22;20421;-57
2021/05/22 02:43:28;;;;;;;6.17;2.80;;;8.70;99.90;;;;;;6293187;22;20416;-54
2021/05/22 02:45:56;;;;;;;4.57;1.90;;;8.70;99.90;;;;;;6292927;22;20778;-56
2021/05/22 02:48:26;;;;;;;5.60;2.80;;;8.70;99.90;;;;;;6292809;22;20477;-56
2021/05/22 02:50:59;;;;;;;5.40;2.40;;;8.70;99.90;;;;;;6291030;22;20422;-57
2021/05/22 02:53:29;;;;;;;3.50;2.23;;;8.70;99.90;;;;;;6294651;22;20444;-55
2021/05/22 02:56:07;;;;;;;2.60;2.40;;;8.70;99.90;;;;;;6292523;22;20484;-55
2021/05/22 02:58:37;;;;;;;5.37;3.10;;;8.80;99.90;;;;;;6292233;22;20401;-52
2021/05/22 03:01:05;;;;;;;5.40;2.60;;;8.80;99.90;;;;;;6294014;22;20476;-50
2021/05/22 03:03:44;;;;;;;7.07;2.60;;;8.80;99.90;;;;;;6292587;22;20400;-52
2021/05/22 03:06:15;;;;;;;2.93;2.03;;;8.90;99.90;;;;;;6291853;22;20499;-49
2021/05/22 03:08:46;;;;;;;3.80;2.20;;;8.90;99.90;;;;;;6293903;22;20785;-55
2021/05/22 03:11:15;;;;;;;3.60;2.20;;;8.90;99.90;;;;;;6292679;22;20417;-50
2021/05/22 03:13:43;;;;;;;2.93;2.23;;;9.00;99.90;;;;;;6295482;22;20417;-51
2021/05/22 03:16:10;;;;;;;5.60;2.53;;;9.00;99.90;;;;;;6295361;22;20474;-53
2021/05/22 03:18:46;;;;;;;6.77;2.30;;;9.00;99.90;;;;;;6295159;22;20845;-56
2021/05/22 03:21:13;;;;;;;4.30;2.13;;;9.00;99.90;;;;;;6290592;22;20421;-50
2021/05/22 03:23:41;;;;;;;6.60;2.03;;;9.10;99.90;;;;;;6295260;22;20424;-56
2021/05/22 03:26:19;;;;;;;6.17;2.47;;;9.10;99.90;;;;;;6294520;22;20470;-52
2021/05/22 03:28:49;;;;;;;5.47;2.30;;;9.10;99.90;;;;;;6293406;22;20552;-50
2021/05/22 03:31:16;;;;;;;3.67;2.30;;;9.10;99.90;;;;;;6297066;22;20441;-51
2021/05/22 03:33:44;;;;;;;4.13;2.10;;;9.10;99.90;;;;;;6295896;22;20474;-54
2021/05/22 03:36:29;;;;;;;6.13;2.63;;;9.10;99.90;;;;;;6296449;22;20440;-53
2021/05/22 03:38:57;;;;;;;3.23;2.40;;;9.00;99.90;;;;;;6298264;22;20440;-53
2021/05/22 03:41:40;;;;;;;9.50;3.33;;;8.90;99.90;;;;;;6294586;22;20417;-48
2021/05/22 03:44:12;;;;;;;8.60;2.70;;;9.00;99.90;;;;;;6281405;22;20893;-51
2021/05/22 03:46:38;;;;;;;3.40;2.50;;;9.00;99.90;;;;;;6283337;22;20709;-51
2021/05/22 03:49:05;;;;;;;5.13;2.47;;;9.00;99.90;;;;;;6281969;22;20445;-52
2021/05/22 03:51:32;;;;;;;4.50;2.40;;;9.00;99.90;;;;;;6281554;22;20402;-52
2021/05/22 03:53:58;;;;;;;4.73;2.73;;;9.00;99.90;;;;;;6281642;22;20421;-51
2021/05/22 03:56:25;;;;;;;3.27;2.30;;;9.00;99.90;;;;;;6281830;22;20896;-49
2021/05/22 03:58:53;;;;;;;4.57;2.57;;;9.00;99.90;;;;;;6281338;22;20431;-49
2021/05/22 04:01:20;;;;;;;4.50;2.53;;;9.00;99.90;;;;;;6280513;22;20488;-54
2021/05/22 04:03:46;;;;;;;5.43;2.40;;;9.10;99.90;;;;;;6276728;22;20424;-53
2021/05/22 04:06:13;;;;;;;5.23;2.30;;;9.20;99.90;;;;;;6281529;22;20423;-53
2021/05/22 04:08:40;;;;;;;4.60;2.10;;;9.20;99.90;;;;;;6281362;22;20455;-53
2021/05/22 04:11:07;;;;;;;6.03;2.30;;;9.30;99.90;;;;;;6281480;22;20421;-53
2021/05/22 04:13:33;;;;;;;6.43;2.90;;;9.30;99.90;;;;;;6281212;22;20417;-57
2021/05/22 04:16:01;;;;;;;4.13;2.33;;;9.30;99.90;;;;;;6280983;22;20421;-51
2021/05/22 04:18:27;;;;;;;8.23;2.90;;;9.30;99.90;;;;;;6279566;22;20417;-57
2021/05/22 04:20:54;;;;;;;3.27;2.43;;;9.30;99.90;;;;;;6280920;22;20399;-51
2021/05/22 04:23:23;;;;;;;11.23;2.50;;;9.40;99.90;;;;;;6282260;22;20417;-55
2021/05/22 04:25:50;;;;;;;5.40;2.87;;;9.30;99.90;;;;;;6294044;22;20476;-54
2021/05/22 04:28:17;;;;;;;4.30;2.67;;;9.30;99.90;;;;;;6293826;22;20451;-53
2021/05/22 04:30:46;;;;;;;5.07;2.77;;;9.30;99.90;;;;;;6293633;22;20421;-53
2021/05/22 04:33:16;;;;;;;5.23;2.40;;;9.40;99.90;;;;;;6291256;22;20417;-47
2021/05/22 04:35:43;;;;;;;3.20;2.60;;;9.30;99.90;;;;;;6281658;22;20417;-48
2021/05/22 04:38:10;;;;;;;3.73;2.80;;;9.30;99.90;;;;;;6281507;22;20854;-50
2021/05/22 05:15:13;;;;;;;6.17;2.83;;;8.90;99.90;;;;;;6265844;22;20453;-60
2021/05/22 05:17:44;;;;;;;7.53;2.80;;;9.00;99.90;;;;;;6284898;22;20413;-60
2021/05/22 05:20:11;;;;;;;7.80;3.40;;;8.90;99.90;;;;;;6287416;22;20421;-62
2021/05/22 05:22:40;;;;;;;5.43;2.60;;;9.00;99.90;;;;;;6287335;22;20437;-62
2021/05/22 05:25:08;;;;;;;7.27;3.10;;;9.00;99.90;;;;;;6285771;22;20398;-64
2021/05/22 05:27:35;;;;;;;9.47;3.10;;;9.00;99.90;;;;;;6284580;22;20457;-64
2021/05/22 05:30:02;;;;;;;5.83;2.77;;;9.10;99.90;;;;;;6283426;22;20479;-65
2021/05/22 05:32:29;;;;;;;7.43;2.97;;;9.10;99.90;;;;;;6282832;22;20392;-65
2021/05/22 05:34:56;;;;;;;7.63;2.30;;;9.20;99.90;;;;;;6282304;22;20420;-65
2021/05/22 05:37:23;;;;;;;8.43;3.17;;;9.20;99.90;;;;;;6283399;22;20421;-65
2021/05/22 05:39:53;;;;;;;7.53;3.00;;;9.20;99.90;;;;;;6283216;22;20428;-64
2021/05/22 05:42:19;;;;;;;3.73;2.60;;;9.30;99.90;;;;;;6282674;22;20421;-65
2021/05/22 05:44:46;;;;;;;5.87;3.00;;;9.40;99.90;;;;;;6283263;22;20398;-65
2021/05/22 05:47:13;;;;;;;6.47;2.90;;;9.60;99.90;;;;;;6282532;22;20417;-64
2021/05/22 05:49:40;;;;;;;3.50;2.53;;;9.80;99.90;;;;;;6282572;22;20417;-63
2021/05/22 05:52:08;;;;;;;10.03;3.07;;;9.90;99.90;;;;;;6283681;22;20416;-64
2021/05/22 05:54:35;;;;;;;9.07;2.90;;;9.90;99.90;;;;;;6282551;22;20417;-63
2021/05/22 05:57:05;;;;;;;7.10;3.20;;;9.90;99.90;;;;;;6283049;22;20424;-63
2021/05/22 05:59:31;;;;;;;10.40;3.30;;;10.10;99.90;;;;;;6283058;22;20413;-63
2021/05/22 06:01:58;;;;;;;5.47;3.10;;;10.20;99.90;;;;;;6283081;22;20421;-62
2021/05/22 06:04:27;;;;;;;4.43;2.60;;;10.30;99.90;;;;;;6278424;22;20526;-62
2021/05/22 06:06:55;;;;;;;5.53;2.43;;;10.40;99.90;;;;;;6284415;22;20478;-62
2021/05/22 06:09:22;;;;;;;7.97;3.83;;;10.40;99.90;;;;;;6283357;22;20775;-62
2021/05/22 06:11:49;;;;;;;6.50;3.07;;;10.30;99.90;;;;;;6282267;22;20459;-61
2021/05/22 06:14:17;;;;;;;7.00;2.20;;;10.40;99.90;;;;;;6283828;22;20417;-61
2021/05/22 06:16:46;;;;;;;4.33;2.63;;;10.40;99.90;;;;;;6283032;22;20527;-61
2021/05/22 06:19:16;;;;;;;4.37;2.80;;;10.40;99.90;;;;;;6282680;22;20417;-61
2021/05/22 06:21:43;;;;;;;6.20;2.77;;;10.40;99.90;;;;;;6283256;22;20424;-61
2021/05/22 06:24:13;;;;;;;5.87;2.43;;;10.40;99.90;;;;;;6282895;22;20428;-61
2021/05/22 06:26:42;;;;;;;8.23;2.67;;;10.30;99.90;;;;;;6289063;22;20421;-60
2021/05/22 06:29:14;;;;;;;4.40;2.40;;;10.30;99.90;;;;;;6296092;22;20460;-61
2021/05/22 06:31:43;;;;;;;3.67;2.60;;;10.30;99.90;;;;;;6297181;22;20420;-61
2021/05/22 10:49:00;;;;;;;4.50;2.90;;;9.70;99.90;;;;;;6264127;22;20448;-62
2021/05/22 11:27:12;;;;;;;6.67;2.80;;;10.30;99.90;;;;;;6216515;22;20461;-60
2021/05/22 11:29:58;;;;;;;7.17;2.83;;;10.40;99.90;;;;;;6217182;23;20482;-61
2021/05/22 12:10:58;;;;;;;6.83;3.77;;;10.60;99.90;;;;;;6276900;22;20492;-63
2021/05/22 12:13:25;;;;;;;6.00;2.70;;;10.60;99.90;;;;;;6284847;22;20409;-62
2021/05/22 12:15:53;;;;;;;8.83;3.43;;;10.60;99.90;;;;;;6281809;22;20729;-62
2021/05/22 12:18:20;;;;;;;5.77;3.40;;;10.60;99.90;;;;;;6281393;22;20417;-62
2021/05/22 12:20:48;;;;;;;3.80;2.53;;;10.70;99.90;;;;;;6280337;22;20778;-62
2021/05/22 12:23:26;;;;;;;4.63;2.93;;;10.60;99.90;;;;;;6280341;22;20449;-62
2021/05/22 12:25:54;;;;;;;4.20;2.60;;;10.70;99.90;;;;;;6281630;22;20435;-62
2021/05/22 12:28:22;;;;;;;4.07;2.43;;;10.80;99.90;;;;;;6282187;22;20448;-62
2021/05/22 12:30:51;;;;;;;8.03;3.80;;;10.80;99.90;;;;;;6280289;22;20417;-62
2021/05/22 12:33:17;;;;;;;3.97;2.73;;;10.90;99.90;;;;;;6282013;22;20417;-62
2021/05/22 13:14:01;;;;;;;9.30;3.37;;;11.00;99.90;;;;;;6245127;22;20809;-62
2021/05/22 13:50:55;;;;;;;7.83;2.83;;;11.30;99.90;;;;;;6239573;22;20454;-62
2021/05/22 13:53:22;;;;;;;3.67;2.27;;;11.40;99.90;;;;;;6248234;23;20421;-62
2021/05/22 13:55:49;;;;;;;4.00;3.13;;;11.30;99.90;;;;;;6248614;23;20425;-62
2021/05/22 13:58:15;;;;;;;3.70;2.37;;;11.30;99.90;;;;;;6248095;23;20425;-62
2021/05/22 14:00:43;;;;;;;4.20;2.63;;;11.20;99.90;;;;;;6247632;23;20422;-62
2021/05/22 14:03:13;;;;;;;4.70;2.67;;;11.20;99.90;;;;;;6244505;23;20822;-62
2021/05/22 15:54:10;;;;;;;4.70;4.30;;;10.70;99.90;;;;;;6234445;22;20480;-62
2021/05/22 16:00:21;;;;;;;2.97;2.67;;;10.90;99.90;;;;;;6248189;23;20414;-64
2021/05/22 16:02:59;;;;;;;2.97;2.67;;;10.90;99.90;;;;;;6247440;23;20425;-64
2021/05/22 16:05:40;;;;;;;3.13;2.83;;;11.00;99.90;;;;;;6247349;23;20405;-64
2021/05/22 16:08:10;;;;;;;4.27;2.50;;;10.90;99.90;;;;;;6250104;23;20910;-64
2021/05/22 16:10:37;;;;;;;4.40;2.70;;;10.90;99.90;;;;;;6246640;23;20425;-64
2021/05/22 16:13:06;;;;;;;3.17;2.70;;;11.00;99.90;;;;;;6247856;23;20418;-64
2021/05/22 16:15:34;;;;;;;2.63;2.43;;;11.00;99.90;;;;;;6247260;23;20418;-64
2021/05/22 16:55:14;;;;;;;3.83;2.20;;;11.00;99.90;;;;;;6249153;22;20460;-63
2021/05/22 16:57:41;;;;;;;2.80;2.07;;;11.10;99.90;;;;;;6248623;23;20418;-63
2021/05/22 17:00:11;;;;;;;2.53;2.33;;;11.10;99.90;;;;;;6248432;23;20400;-63
2021/05/22 17:02:39;;;;;;;2.50;2.30;;;11.00;99.90;;;;;;6277733;22;20392;-63
2021/05/22 17:05:08;;;;;;;3.87;2.80;;;11.00;99.90;;;;;;6277781;22;20417;-64
2021/05/22 17:38:42;;;;;;;3.37;3.07;;;10.40;99.90;;;;;;6265018;22;20438;-62
2021/05/22 17:41:09;;;;;;;3.20;2.90;;;10.40;99.90;;;;;;6280179;22;20401;-62
2021/05/22 17:43:38;;;;;;;3.40;3.00;;;10.40;99.90;;;;;;6279139;22;20707;-62
2021/05/22 17:46:05;;;;;;;3.40;3.07;;;10.40;99.90;;;;;;6278905;22;20424;-62
2021/05/22 17:48:32;;;;;;;3.03;2.67;;;10.50;99.90;;;;;;6278845;22;20451;-62
2021/05/22 17:50:58;;;;;;;3.43;3.10;;;10.60;99.90;;;;;;6279190;22;20525;-62
2021/05/22 17:53:25;;;;;;;3.63;2.90;;;10.60;99.90;;;;;;6279454;22;20414;-62
2021/05/22 17:55:52;;;;;;;4.57;2.90;;;10.70;99.90;;;;;;6279180;22;20872;-62
2021/05/22 17:58:19;;;;;;;3.20;2.67;;;10.70;99.90;;;;;;6279039;22;20413;-62
2021/05/22 18:00:47;;;;;;;3.70;2.53;;;10.60;99.90;;;;;;6279287;22;20423;-62
2021/05/22 18:03:14;;;;;;;4.20;2.83;;;10.60;99.90;;;;;;6281317;22;20451;-62
2021/05/22 18:05:41;;;;;;;3.10;2.80;;;10.60;99.90;;;;;;6282683;22;20423;-62
2021/05/22 18:48:35;;;;;;;4.97;4.47;;;10.20;99.90;;;;;;6300877;22;20483;-62
2021/05/22 18:51:04;;;;;;;6.17;5.40;;;10.20;99.90;;;;;;6311028;22;20808;-64
2021/05/22 18:53:31;;;;;;;4.30;3.90;;;10.20;99.90;;;;;;6311548;22;20482;-64
2021/05/22 18:55:59;;;;;;;4.13;3.83;;;10.20;99.90;;;;;;6310473;22;20412;-64
2021/05/22 18:58:30;;;;;;;7.13;4.73;;;10.10;99.90;;;;;;6310941;22;20412;-64
2021/05/22 19:00:57;;;;;;;4.63;4.23;;;10.10;99.90;;;;;;6310665;22;20763;-64
2021/05/22 19:03:24;;;;;;;5.57;4.10;;;10.10;99.90;;;;;;6307232;22;20391;-64
2021/05/22 19:05:52;;;;;;;4.90;4.40;;;10.10;99.90;;;;;;6309454;22;20828;-64
2021/05/22 19:08:22;;;;;;;4.50;4.07;;;10.10;99.90;;;;;;6310318;22;20440;-64
2021/05/22 19:10:49;;;;;;;5.80;5.07;;;10.00;99.90;;;;;;6311486;22;20420;-64
2021/05/22 19:13:16;;;;;;;4.90;4.40;;;10.00;99.90;;;;;;6312086;22;20416;-64
2021/05/22 19:15:43;;;;;;;12.63;9.73;;;9.90;99.90;;;;;;6309861;22;20443;-64
2021/05/22 19:18:12;;;;;;;8.57;5.40;;;9.90;99.90;;;;;;6310086;22;20502;-64
2021/05/22 19:20:40;;;;;;;14.67;11.23;;;9.90;99.90;;;;;;6310267;22;20431;-64
2021/05/22 19:23:10;;;;;;;14.83;10.50;;;9.80;99.90;;;;;;6309605;22;20421;-64
2021/05/22 19:25:36;;;;;;;19.27;13.13;;;9.80;99.90;;;;;;6309702;22;20459;-64
2021/05/22 19:28:03;;;;;;;7.30;6.70;;;9.80;99.90;;;;;;6309655;22;20421;-64
2021/05/22 19:30:30;;;;;;;6.07;5.57;;;9.80;99.90;;;;;;6309099;22;20412;-64
2021/05/22 19:32:57;;;;;;;5.57;5.10;;;9.80;99.90;;;;;;6309323;22;20820;-64
2021/05/22 19:35:24;;;;;;;6.90;5.77;;;9.70;99.90;;;;;;6310455;22;20417;-64
2021/05/22 19:37:51;;;;;;;10.83;5.70;;;9.70;99.90;;;;;;6309343;22;20423;-64
2021/05/22 19:40:21;;;;;;;6.57;5.83;;;9.80;99.90;;;;;;6309782;22;20423;-64
2021/05/22 19:42:51;;;;;;;4.80;4.40;;;9.80;99.90;;;;;;6309958;22;20438;-64
2021/05/22 19:45:23;;;;;;;6.50;4.80;;;9.70;99.90;;;;;;6309310;22;20521;-64
2021/05/22 19:47:50;;;;;;;7.10;4.97;;;9.70;99.90;;;;;;6310888;22;20414;-64
2021/05/22 19:50:18;;;;;;;5.00;4.50;;;9.70;99.90;;;;;;6309618;22;20440;-64
2021/05/22 19:52:46;;;;;;;5.23;4.63;;;9.70;99.90;;;;;;6309977;22;20459;-64
2021/05/22 19:55:14;;;;;;;4.60;4.20;;;9.70;99.90;;;;;;6311706;22;20694;-64
2021/05/22 19:57:44;;;;;;;5.10;4.53;;;9.70;99.90;;;;;;6312335;22;20484;-64
2021/05/22 20:00:15;;;;;;;5.07;4.67;;;9.70;99.90;;;;;;6311198;22;20416;-64
2021/05/22 20:02:42;;;;;;;6.77;4.80;;;9.70;99.90;;;;;;6309659;22;20837;-64
2021/05/22 20:05:12;;;;;;;4.80;4.40;;;9.70;99.90;;;;;;6308841;22;20838;-64
2021/05/22 20:07:40;;;;;;;6.97;4.80;;;9.70;99.90;;;;;;6311600;22;20443;-64
2021/05/22 20:10:08;;;;;;;4.80;4.10;;;9.60;99.90;;;;;;6311632;22;20448;-64
2021/05/22 20:12:40;;;;;;;4.73;4.33;;;9.60;99.90;;;;;;6308599;22;20430;-64
2021/05/22 20:15:12;;;;;;;5.60;4.30;;;9.60;99.90;;;;;;6310928;22;20869;-64
2021/05/22 20:17:38;;;;;;;5.30;4.60;;;9.60;99.90;;;;;;6311091;22;20882;-64
2021/05/22 20:20:11;;;;;;;7.20;4.73;;;9.50;99.90;;;;;;6312053;22;20710;-64
2021/05/22 20:22:38;;;;;;;5.80;4.60;;;9.50;99.90;;;;;;6310776;22;20420;-64
2021/05/22 20:25:08;;;;;;;5.57;5.07;;;9.50;99.90;;;;;;6311197;22;20420;-64
2021/05/22 20:27:35;;;;;;;6.33;4.00;;;9.50;99.90;;;;;;6311003;22;20416;-64
2021/05/22 20:30:02;;;;;;;9.37;4.40;;;9.40;99.90;;;;;;6310460;22;21006;-64
2021/05/22 20:32:31;;;;;;;4.87;4.47;;;9.40;99.90;;;;;;6311031;22;20489;-64
2021/05/22 20:34:59;;;;;;;4.70;4.17;;;9.40;99.90;;;;;;6311062;22;20804;-64
2021/05/22 20:37:29;;;;;;;8.90;4.20;;;9.40;99.90;;;;;;6310709;22;20429;-64
2021/05/22 20:39:55;;;;;;;5.40;4.40;;;9.40;99.90;;;;;;6310604;22;20419;-64
2021/05/22 20:42:22;;;;;;;8.97;4.47;;;9.40;99.90;;;;;;6310685;22;20423;-64
2021/05/22 20:44:49;;;;;;;6.10;4.10;;;9.50;99.90;;;;;;6310677;22;20420;-64
2021/05/22 20:47:16;;;;;;;6.80;4.30;;;9.60;99.90;;;;;;6311023;22;20728;-64
2021/05/22 20:49:45;;;;;;;11.67;4.40;;;9.60;99.90;;;;;;6311205;22;20881;-64
2021/05/22 20:52:15;;;;;;;5.87;4.20;;;9.60;99.90;;;;;;6313185;22;20420;-64
2021/05/22 20:54:45;;;;;;;6.70;5.10;;;9.60;99.90;;;;;;6311358;22;20416;-64
2021/05/22 20:57:12;;;;;;;5.20;4.70;;;9.60;99.90;;;;;;6311116;22;20412;-64
2021/05/22 20:59:39;;;;;;;6.07;4.60;;;9.60;99.90;;;;;;6310422;22;20914;-64
2021/05/22 21:02:15;;;;;;;7.90;4.50;;;9.60;99.90;;;;;;6310963;22;20452;-64
2021/05/22 21:04:43;;;;;;;5.20;4.67;;;9.60;99.90;;;;;;6305877;22;20419;-64
2021/05/22 21:07:13;;;;;;;5.20;4.63;;;9.60;99.90;;;;;;6311061;22;20523;-64
2021/05/22 21:09:39;;;;;;;6.23;4.97;;;9.60;99.90;;;;;;6310240;22;20547;-64
2021/05/22 21:12:10;;;;;;;6.00;5.37;;;9.70;99.90;;;;;;6309565;22;20544;-64
2021/05/22 21:14:37;;;;;;;5.97;5.17;;;9.70;99.90;;;;;;6310998;22;20414;-64
2021/05/22 21:17:04;;;;;;;6.03;5.43;;;9.70;99.90;;;;;;6310948;22;20423;-64
2021/05/22 21:19:31;;;;;;;9.47;5.80;;;9.70;99.90;;;;;;6310875;22;20420;-64
2021/05/22 21:56:45;;;;;;;6.87;4.80;;;9.90;99.90;;;;;;6279225;22;20456;-64
2021/05/22 21:59:15;;;;;;;9.20;6.67;;;9.80;99.90;;;;;;6279062;22;20675;-65
2021/05/22 22:01:42;;;;;;;7.93;6.30;;;9.80;99.90;;;;;;6279051;22;20480;-64
2021/05/22 22:40:03;;;;;;;4.30;3.80;;;9.50;99.90;;;;;;6296561;22;20455;-63
2021/05/22 23:18:05;;;;;;;3.40;3.10;;;9.40;99.90;;;;;;6308417;22;20480;-63
2021/05/22 23:20:32;;;;;;;5.90;3.37;;;9.40;99.90;;;;;;6309343;22;20423;-63
2021/05/22 23:22:58;;;;;;;4.10;3.20;;;9.40;99.90;;;;;;6309811;22;20420;-63
2021/05/22 23:25:30;;;;;;;4.70;3.37;;;9.40;99.90;;;;;;6309855;22;20426;-63
2021/05/22 23:28:00;;;;;;;3.47;3.00;;;9.40;99.90;;;;;;6309660;22;20423;-63
2021/05/22 23:30:29;;;;;;;7.10;4.40;;;9.40;99.90;;;;;;6310796;22;20501;-63
2021/05/22 23:32:56;;;;;;;4.17;3.73;;;9.50;99.90;;;;;;6311959;22;20416;-63
2021/05/22 23:35:23;;;;;;;7.60;4.30;;;9.50;99.90;;;;;;6311489;22;20423;-63
2021/05/22 23:37:51;;;;;;;6.33;3.90;;;9.50;99.90;;;;;;6311722;22;20424;-63
2021/05/22 23:40:22;;;;;;;5.27;4.17;;;9.50;99.90;;;;;;6311709;22;20778;-63
2021/05/22 23:42:50;;;;;;;6.00;4.03;;;9.40;99.90;;;;;;6312383;22;20474;-63
2021/05/22 23:45:17;;;;;;;4.40;4.00;;;9.50;99.90;;;;;;6310986;22;20479;-63
2021/05/22 23:47:44;;;;;;;4.73;3.80;;;9.40;99.90;;;;;;6312145;22;20398;-63
2021/05/22 23:50:14;;;;;;;7.73;4.40;;;9.40;99.90;;;;;;6311343;22;20843;-63
2021/05/22 23:52:49;;;;;;;5.10;3.83;;;9.40;99.90;;;;;;6311840;22;20419;-63
2021/05/22 23:55:19;;;;;;;6.03;4.13;;;9.40;99.90;;;;;;6311729;22;20485;-63
2021/05/22 23:57:46;;;;;;;7.43;4.37;;;9.40;99.90;;;;;;6311832;22;20415;-63
